Etusivu
METAR-TAF:

METAR-TAF

Lentoasemat :

Xi’an Xianyangin kansainvälinen lentoasema

Xi’an, Kiina

Leveyspiiri: 34-26N, Pituuspiiri: 108-45E, korkeus merenpinnasta: 479 m

Tämänhetkinen sää

Tämä raportti tehtiin 1 tunti ja 4 minuuttia sitten, kello 18.00 UTC
Tuuli 8 kn idästä/koillisesta
Lämpötila 30°C
Kosteus 70%
Ilmanpaine 1004 hPa
Näkyvyys 10 km tai enemmän
ei pilviä alle 1500 m:ssä eikä cumulonimbus-pilviä

METAR: ZLXY 211800Z 07004MPS CAVOK 30/24 Q1004 NOSIG

Aika: 03:04 (19:04 UTC)

Sääennuste

Tämä raportti tehtiin 3 tuntia ja 55 minuuttia sitten, kello 15.09 UTC
Ennuste voimassa 21. päivästä klo 18 UTC - 22. päivään klo 18 UTC
Tuuli 6 kn idästä/koillisesta
Näkyvyys: 6000 m

TAF: ZLXY 211509Z 2118/2218 06003MPS 6000 NSC TX38/2207Z TN24/2121Z

Säähavainnot ja -ennusteet yli 4000 lentoasemalta (METAR- ja TAF-raportit).

Käytössä olevat sääasemat on merkitty karttaan keltaisilla ja punaisilla pisteillä.

Aseta hiiri pisteen päälle nähdäksesi sääaseman nimen.

Klikkaa sitten nähdäksesi säähavainnot ja -ennusteet.

Kartan vaihtaminen: klikkaa mustalla rastilla varustettuja vihreitä pisteitä, niin voit zoomata sisään; viivalla varustettua vihreää pistettä, niin voit zoomata ulos tai vihreitä nuolia, niin pääset viereisille kartoille.


METAR-TAF: